sensor_id;sensor_type;location;lat;lon;timestamp;temperature;humidity
71942;DHT22;59997;53.300;-6.260;2023-02-28T00:00:28;6.55;83.27
71942;DHT22;59997;53.300;-6.260;2023-02-28T00:02:54;6.61;83.43
71942;DHT22;59997;53.300;-6.260;2023-02-28T00:05:22;6.70;83.50
71942;DHT22;59997;53.300;-6.260;2023-02-28T00:07:50;6.75;83.47
71942;DHT22;59997;53.300;-6.260;2023-02-28T00:10:17;6.75;83.49
71942;DHT22;59997;53.300;-6.260;2023-02-28T00:12:59;6.63;83.58
71942;DHT22;59997;53.300;-6.260;2023-02-28T00:15:25;6.61;83.88
71942;DHT22;59997;53.300;-6.260;2023-02-28T00:17:51;6.71;83.56
71942;DHT22;59997;53.300;-6.260;2023-02-28T00:20:17;6.74;83.40
71942;DHT22;59997;53.300;-6.260;2023-02-28T00:22:45;6.61;83.68
71942;DHT22;59997;53.300;-6.260;2023-02-28T00:25:15;6.70;83.86
71942;DHT22;59997;53.300;-6.260;2023-02-28T00:27:42;6.63;84.04
71942;DHT22;59997;53.300;-6.260;2023-02-28T00:30:11;6.60;84.20
71942;DHT22;59997;53.300;-6.260;2023-02-28T00:32:37;6.63;84.41
71942;DHT22;59997;53.300;-6.260;2023-02-28T00:35:03;6.72;84.37
71942;DHT22;59997;53.300;-6.260;2023-02-28T00:37:30;6.77;84.32
71942;DHT22;59997;53.300;-6.260;2023-02-28T00:39:55;6.80;84.45
71942;DHT22;59997;53.300;-6.260;2023-02-28T00:42:21;6.70;84.57
71942;DHT22;59997;53.300;-6.260;2023-02-28T00:44:47;6.72;84.55
71942;DHT22;59997;53.300;-6.260;2023-02-28T00:47:13;6.77;84.51
71942;DHT22;59997;53.300;-6.260;2023-02-28T00:49:39;6.85;84.30
71942;DHT22;59997;53.300;-6.260;2023-02-28T00:52:04;6.75;84.34
71942;DHT22;59997;53.300;-6.260;2023-02-28T00:54:30;6.70;84.34
71942;DHT22;59997;53.300;-6.260;2023-02-28T00:56:56;6.70;84.29
71942;DHT22;59997;53.300;-6.260;2023-02-28T00:59:21;6.70;84.08
71942;DHT22;59997;53.300;-6.260;2023-02-28T01:01:47;6.67;83.92
71942;DHT22;59997;53.300;-6.260;2023-02-28T01:04:14;6.75;83.47
71942;DHT22;59997;53.300;-6.260;2023-02-28T01:06:40;6.96;82.86
71942;DHT22;59997;53.300;-6.260;2023-02-28T01:09:07;6.77;82.97
71942;DHT22;59997;53.300;-6.260;2023-02-28T01:11:33;6.78;83.00
71942;DHT22;59997;53.300;-6.260;2023-02-28T01:14:00;6.91;82.65
71942;DHT22;59997;53.300;-6.260;2023-02-28T01:16:26;6.84;82.88
71942;DHT22;59997;53.300;-6.260;2023-02-28T01:18:53;6.74;83.11
71942;DHT22;59997;53.300;-6.260;2023-02-28T01:21:20;6.77;83.27
71942;DHT22;59997;53.300;-6.260;2023-02-28T01:23:47;6.72;83.38
71942;DHT22;59997;53.300;-6.260;2023-02-28T01:26:22;6.68;83.36
71942;DHT22;59997;53.300;-6.260;2023-02-28T01:28:49;6.70;83.37
71942;DHT22;59997;53.300;-6.260;2023-02-28T01:31:15;6.68;83.40
71942;DHT22;59997;53.300;-6.260;2023-02-28T01:33:40;6.61;83.44
71942;DHT22;59997;53.300;-6.260;2023-02-28T01:36:14;6.58;83.51
71942;DHT22;59997;53.300;-6.260;2023-02-28T01:38:40;6.70;83.43
71942;DHT22;59997;53.300;-6.260;2023-02-28T01:41:07;6.61;83.35
71942;DHT22;59997;53.300;-6.260;2023-02-28T01:46:08;6.70;82.93
71942;DHT22;59997;53.300;-6.260;2023-02-28T01:48:37;6.63;82.91
71942;DHT22;59997;53.300;-6.260;2023-02-28T01:51:18;6.77;82.58
71942;DHT22;59997;53.300;-6.260;2023-02-28T01:53:51;6.71;82.35
71942;DHT22;59997;53.300;-6.260;2023-02-28T01:56:24;6.75;82.29
71942;DHT22;59997;53.300;-6.260;2023-02-28T01:58:53;6.67;82.36
71942;DHT22;59997;53.300;-6.260;2023-02-28T02:01:20;6.57;82.93
71942;DHT22;59997;53.300;-6.260;2023-02-28T02:03:53;6.54;82.77
71942;DHT22;59997;53.300;-6.260;2023-02-28T02:06:42;6.51;82.93
71942;DHT22;59997;53.300;-6.260;2023-02-28T02:09:18;6.47;82.98
71942;DHT22;59997;53.300;-6.260;2023-02-28T02:11:44;6.46;83.22
71942;DHT22;59997;53.300;-6.260;2023-02-28T02:17:42;6.47;83.50
71942;DHT22;59997;53.300;-6.260;2023-02-28T02:20:32;6.43;83.73
71942;DHT22;59997;53.300;-6.260;2023-02-28T02:32:59;6.48;83.80
71942;DHT22;59997;53.300;-6.260;2023-02-28T02:35:37;6.48;83.65
71942;DHT22;59997;53.300;-6.260;2023-02-28T02:41:28;6.51;83.70
71942;DHT22;59997;53.300;-6.260;2023-02-28T02:44:17;6.47;83.68
71942;DHT22;59997;53.300;-6.260;2023-02-28T02:46:45;6.53;83.40
71942;DHT22;59997;53.300;-6.260;2023-02-28T02:49:32;6.54;83.34
71942;DHT22;59997;53.300;-6.260;2023-02-28T02:52:03;6.54;83.38
71942;DHT22;59997;53.300;-6.260;2023-02-28T02:54:37;6.51;83.52
71942;DHT22;59997;53.300;-6.260;2023-02-28T02:57:11;6.50;83.40
71942;DHT22;59997;53.300;-6.260;2023-02-28T02:59:40;6.54;83.18
71942;DHT22;59997;53.300;-6.260;2023-02-28T03:02:10;6.65;83.07
71942;DHT22;59997;53.300;-6.260;2023-02-28T03:04:42;6.58;83.02
71942;DHT22;59997;53.300;-6.260;2023-02-28T03:07:09;6.61;83.00
71942;DHT22;59997;53.300;-6.260;2023-02-28T03:09:34;6.58;83.06
71942;DHT22;59997;53.300;-6.260;2023-02-28T03:12:04;6.60;83.21
71942;DHT22;59997;53.300;-6.260;2023-02-28T03:20:00;6.51;83.56
71942;DHT22;59997;53.300;-6.260;2023-02-28T03:26:11;6.47;83.69
71942;DHT22;59997;53.300;-6.260;2023-02-28T03:31:41;6.37;83.92
71942;DHT22;59997;53.300;-6.260;2023-02-28T03:34:33;6.41;84.08
71942;DHT22;59997;53.300;-6.260;2023-02-28T03:37:04;6.44;83.89
71942;DHT22;59997;53.300;-6.260;2023-02-28T03:39:44;6.41;84.01
71942;DHT22;59997;53.300;-6.260;2023-02-28T03:42:15;6.50;83.80
71942;DHT22;59997;53.300;-6.260;2023-02-28T03:45:13;6.43;83.86
71942;DHT22;59997;53.300;-6.260;2023-02-28T03:47:55;6.37;83.98
71942;DHT22;59997;53.300;-6.260;2023-02-28T03:50:40;6.30;84.10
71942;DHT22;59997;53.300;-6.260;2023-02-28T03:53:20;6.36;84.03
71942;DHT22;59997;53.300;-6.260;2023-02-28T03:55:57;6.41;83.86
71942;DHT22;59997;53.300;-6.260;2023-02-28T03:58:42;6.46;83.68
71942;DHT22;59997;53.300;-6.260;2023-02-28T04:03:59;6.32;83.84
71942;DHT22;59997;53.300;-6.260;2023-02-28T04:06:25;6.26;84.08
71942;DHT22;59997;53.300;-6.260;2023-02-28T04:08:51;6.25;84.04
71942;DHT22;59997;53.300;-6.260;2023-02-28T04:11:18;6.28;84.08
71942;DHT22;59997;53.300;-6.260;2023-02-28T04:13:45;6.41;83.80
71942;DHT22;59997;53.300;-6.260;2023-02-28T04:16:11;6.46;83.70
71942;DHT22;59997;53.300;-6.260;2023-02-28T04:18:39;6.65;83.27
71942;DHT22;59997;53.300;-6.260;2023-02-28T04:21:06;6.75;82.91
71942;DHT22;59997;53.300;-6.260;2023-02-28T04:23:32;6.60;83.32
71942;DHT22;59997;53.300;-6.260;2023-02-28T04:25:59;6.44;83.47
71942;DHT22;59997;53.300;-6.260;2023-02-28T04:28:25;6.28;83.68
71942;DHT22;59997;53.300;-6.260;2023-02-28T04:31:03;6.22;83.89
71942;DHT22;59997;53.300;-6.260;2023-02-28T04:33:32;6.11;84.10
71942;DHT22;59997;53.300;-6.260;2023-02-28T04:35:59;6.11;84.30
71942;DHT22;59997;53.300;-6.260;2023-02-28T04:38:25;6.22;84.55
71942;DHT22;59997;53.300;-6.260;2023-02-28T04:40:51;6.29;84.39
71942;DHT22;59997;53.300;-6.260;2023-02-28T04:43:17;6.40;84.10
71942;DHT22;59997;53.300;-6.260;2023-02-28T04:45:43;6.36;84.17
71942;DHT22;59997;53.300;-6.260;2023-02-28T04:48:08;6.30;84.29
71942;DHT22;59997;53.300;-6.260;2023-02-28T04:50:35;6.28;84.33
71942;DHT22;59997;53.300;-6.260;2023-02-28T04:53:00;6.23;84.52
71942;DHT22;59997;53.300;-6.260;2023-02-28T04:55:26;6.22;84.67
71942;DHT22;59997;53.300;-6.260;2023-02-28T04:57:51;6.15;84.93
71942;DHT22;59997;53.300;-6.260;2023-02-28T05:00:17;6.09;84.94
71942;DHT22;59997;53.300;-6.260;2023-02-28T05:02:45;6.13;85.29
71942;DHT22;59997;53.300;-6.260;2023-02-28T05:05:11;6.11;85.46
71942;DHT22;59997;53.300;-6.260;2023-02-28T05:07:43;6.20;85.60
71942;DHT22;59997;53.300;-6.260;2023-02-28T05:10:10;6.08;85.49
71942;DHT22;59997;53.300;-6.260;2023-02-28T05:12:36;6.02;85.54
71942;DHT22;59997;53.300;-6.260;2023-02-28T05:15:02;5.94;85.13
71942;DHT22;59997;53.300;-6.260;2023-02-28T05:17:31;5.87;84.55
71942;DHT22;59997;53.300;-6.260;2023-02-28T05:19:56;5.78;84.89
71942;DHT22;59997;53.300;-6.260;2023-02-28T05:22:22;5.64;85.26
71942;DHT22;59997;53.300;-6.260;2023-02-28T05:24:48;5.53;85.38
71942;DHT22;59997;53.300;-6.260;2023-02-28T05:27:14;5.38;85.74
71942;DHT22;59997;53.300;-6.260;2023-02-28T05:29:40;5.29;86.04
71942;DHT22;59997;53.300;-6.260;2023-02-28T05:32:14;5.32;86.44
71942;DHT22;59997;53.300;-6.260;2023-02-28T05:34:42;5.31;86.41
71942;DHT22;59997;53.300;-6.260;2023-02-28T05:37:12;5.31;86.61
71942;DHT22;59997;53.300;-6.260;2023-02-28T05:39:38;5.24;86.86
71942;DHT22;59997;53.300;-6.260;2023-02-28T05:42:05;5.16;86.96
71942;DHT22;59997;53.300;-6.260;2023-02-28T05:44:30;5.14;87.03
71942;DHT22;59997;53.300;-6.260;2023-02-28T05:46:58;5.12;87.27
71942;DHT22;59997;53.300;-6.260;2023-02-28T05:49:23;5.12;87.64
71942;DHT22;59997;53.300;-6.260;2023-02-28T05:51:49;5.21;87.61
71942;DHT22;59997;53.300;-6.260;2023-02-28T05:54:15;5.11;87.63
71942;DHT22;59997;53.300;-6.260;2023-02-28T05:56:41;5.00;87.72
71942;DHT22;59997;53.300;-6.260;2023-02-28T05:59:10;4.91;87.78
71942;DHT22;59997;53.300;-6.260;2023-02-28T06:01:43;4.84;88.23
71942;DHT22;59997;53.300;-6.260;2023-02-28T06:04:17;4.80;88.17
71942;DHT22;59997;53.300;-6.260;2023-02-28T06:06:50;4.80;88.36
71942;DHT22;59997;53.300;-6.260;2023-02-28T06:09:16;4.76;88.39
71942;DHT22;59997;53.300;-6.260;2023-02-28T06:11:42;4.79;88.58
71942;DHT22;59997;53.300;-6.260;2023-02-28T06:14:14;4.84;88.82
71942;DHT22;59997;53.300;-6.260;2023-02-28T06:16:39;4.87;88.88
71942;DHT22;59997;53.300;-6.260;2023-02-28T06:19:05;4.81;88.99
71942;DHT22;59997;53.300;-6.260;2023-02-28T06:21:31;4.90;89.34
71942;DHT22;59997;53.300;-6.260;2023-02-28T06:23:57;5.11;89.38
71942;DHT22;59997;53.300;-6.260;2023-02-28T06:26:23;5.11;88.87
71942;DHT22;59997;53.300;-6.260;2023-02-28T06:28:49;4.95;88.85
71942;DHT22;59997;53.300;-6.260;2023-02-28T06:31:16;4.85;88.92
71942;DHT22;59997;53.300;-6.260;2023-02-28T06:33:45;4.76;89.09
71942;DHT22;59997;53.300;-6.260;2023-02-28T06:36:12;4.74;89.32
71942;DHT22;59997;53.300;-6.260;2023-02-28T06:38:41;4.76;89.49
71942;DHT22;59997;53.300;-6.260;2023-02-28T06:41:07;4.74;89.38
71942;DHT22;59997;53.300;-6.260;2023-02-28T06:43:36;4.77;89.41
71942;DHT22;59997;53.300;-6.260;2023-02-28T06:46:05;4.79;89.47
71942;DHT22;59997;53.300;-6.260;2023-02-28T06:48:30;4.76;89.45
71942;DHT22;59997;53.300;-6.260;2023-02-28T06:51:08;4.73;89.44
71942;DHT22;59997;53.300;-6.260;2023-02-28T06:53:40;4.73;89.47
71942;DHT22;59997;53.300;-6.260;2023-02-28T06:56:13;4.81;89.66
71942;DHT22;59997;53.300;-6.260;2023-02-28T06:58:41;4.84;89.83
71942;DHT22;59997;53.300;-6.260;2023-02-28T07:01:08;4.92;89.80
71942;DHT22;59997;53.300;-6.260;2023-02-28T07:03:35;4.98;89.85
71942;DHT22;59997;53.300;-6.260;2023-02-28T07:06:01;5.04;89.82
71942;DHT22;59997;53.300;-6.260;2023-02-28T07:08:28;5.01;89.73
71942;DHT22;59997;53.300;-6.260;2023-02-28T07:10:54;4.97;89.71
71942;DHT22;59997;53.300;-6.260;2023-02-28T07:13:20;5.01;89.76
71942;DHT22;59997;53.300;-6.260;2023-02-28T07:16:03;5.04;89.82
71942;DHT22;59997;53.300;-6.260;2023-02-28T07:18:29;5.21;89.93
71942;DHT22;59997;53.300;-6.260;2023-02-28T07:20:55;5.39;89.63
71942;DHT22;59997;53.300;-6.260;2023-02-28T07:23:21;5.47;89.41
71942;DHT22;59997;53.300;-6.260;2023-02-28T07:25:48;5.38;89.33
71942;DHT22;59997;53.300;-6.260;2023-02-28T07:28:14;5.36;89.41
71942;DHT22;59997;53.300;-6.260;2023-02-28T07:30:41;5.47;89.35
71942;DHT22;59997;53.300;-6.260;2023-02-28T07:33:07;5.47;89.17
71942;DHT22;59997;53.300;-6.260;2023-02-28T07:35:32;5.44;89.16
71942;DHT22;59997;53.300;-6.260;2023-02-28T07:37:59;5.42;89.22
71942;DHT22;59997;53.300;-6.260;2023-02-28T07:40:24;5.32;89.25
71942;DHT22;59997;53.300;-6.260;2023-02-28T07:42:50;5.31;89.39
71942;DHT22;59997;53.300;-6.260;2023-02-28T07:45:16;5.25;89.36
71942;DHT22;59997;53.300;-6.260;2023-02-28T07:47:44;5.33;89.43
71942;DHT22;59997;53.300;-6.260;2023-02-28T07:50:13;5.38;89.48
71942;DHT22;59997;53.300;-6.260;2023-02-28T07:52:39;5.42;89.14
71942;DHT22;59997;53.300;-6.260;2023-02-28T07:55:08;5.44;88.46
71942;DHT22;59997;53.300;-6.260;2023-02-28T07:57:34;5.39;87.97
71942;DHT22;59997;53.300;-6.260;2023-02-28T08:00:00;5.39;87.84
71942;DHT22;59997;53.300;-6.260;2023-02-28T08:02:27;5.39;87.66
71942;DHT22;59997;53.300;-6.260;2023-02-28T08:04:54;5.33;87.51
71942;DHT22;59997;53.300;-6.260;2023-02-28T08:07:22;5.36;87.68
71942;DHT22;59997;53.300;-6.260;2023-02-28T08:09:47;5.35;87.52
71942;DHT22;59997;53.300;-6.260;2023-02-28T08:12:15;5.36;87.26
71942;DHT22;59997;53.300;-6.260;2023-02-28T08:14:41;5.29;86.97
71942;DHT22;59997;53.300;-6.260;2023-02-28T08:17:06;5.22;86.81
71942;DHT22;59997;53.300;-6.260;2023-02-28T08:19:32;5.32;86.62
71942;DHT22;59997;53.300;-6.260;2023-02-28T08:21:58;5.32;86.17
71942;DHT22;59997;53.300;-6.260;2023-02-28T08:24:24;5.24;85.99
71942;DHT22;59997;53.300;-6.260;2023-02-28T08:26:50;5.22;85.60
71942;DHT22;59997;53.300;-6.260;2023-02-28T08:29:16;5.24;85.51
71942;DHT22;59997;53.300;-6.260;2023-02-28T08:31:41;5.22;85.48
71942;DHT22;59997;53.300;-6.260;2023-02-28T08:34:08;5.21;85.29
71942;DHT22;59997;53.300;-6.260;2023-02-28T08:36:37;5.24;85.36
71942;DHT22;59997;53.300;-6.260;2023-02-28T08:39:03;5.22;85.03
71942;DHT22;59997;53.300;-6.260;2023-02-28T08:41:29;5.35;84.71
71942;DHT22;59997;53.300;-6.260;2023-02-28T08:43:55;5.39;84.93
71942;DHT22;59997;53.300;-6.260;2023-02-28T08:46:23;5.44;85.16
71942;DHT22;59997;53.300;-6.260;2023-02-28T08:48:54;5.64;84.92
71942;DHT22;59997;53.300;-6.260;2023-02-28T08:51:21;5.66;84.30
71942;DHT22;59997;53.300;-6.260;2023-02-28T08:53:57;5.64;84.69
71942;DHT22;59997;53.300;-6.260;2023-02-28T08:56:23;5.84;83.62
71942;DHT22;59997;53.300;-6.260;2023-02-28T08:58:50;5.93;83.32
71942;DHT22;59997;53.300;-6.260;2023-02-28T09:01:21;5.94;83.36
71942;DHT22;59997;53.300;-6.260;2023-02-28T09:03:50;5.95;82.67
71942;DHT22;59997;53.300;-6.260;2023-02-28T09:06:17;6.01;81.94
71942;DHT22;59997;53.300;-6.260;2023-02-28T09:08:43;6.13;81.81
71942;DHT22;59997;53.300;-6.260;2023-02-28T09:11:10;6.18;81.63
71942;DHT22;59997;53.300;-6.260;2023-02-28T09:13:37;6.25;81.55
71942;DHT22;59997;53.300;-6.260;2023-02-28T09:16:05;6.22;80.90
71942;DHT22;59997;53.300;-6.260;2023-02-28T09:18:30;6.20;80.61
71942;DHT22;59997;53.300;-6.260;2023-02-28T09:20:56;6.30;81.05
71942;DHT22;59997;53.300;-6.260;2023-02-28T09:23:23;6.46;80.02
71942;DHT22;59997;53.300;-6.260;2023-02-28T09:25:52;6.46;79.42
71942;DHT22;59997;53.300;-6.260;2023-02-28T09:28:19;6.44;78.93
71942;DHT22;59997;53.300;-6.260;2023-02-28T09:30:46;6.60;79.64
71942;DHT22;59997;53.300;-6.260;2023-02-28T09:33:12;6.70;79.40
71942;DHT22;59997;53.300;-6.260;2023-02-28T09:35:39;6.92;78.66
71942;DHT22;59997;53.300;-6.260;2023-02-28T09:38:04;7.06;78.08
71942;DHT22;59997;53.300;-6.260;2023-02-28T09:40:31;7.15;78.10
71942;DHT22;59997;53.300;-6.260;2023-02-28T09:42:58;7.33;77.40
71942;DHT22;59997;53.300;-6.260;2023-02-28T09:45:26;7.43;76.60
71942;DHT22;59997;53.300;-6.260;2023-02-28T09:47:56;7.54;76.21
71942;DHT22;59997;53.300;-6.260;2023-02-28T09:52:54;9.01;72.07
71942;DHT22;59997;53.300;-6.260;2023-02-28T09:55:59;8.35;73.43
71942;DHT22;59997;53.300;-6.260;2023-02-28T09:58:49;8.00;74.29
71942;DHT22;59997;53.300;-6.260;2023-02-28T10:04:02;8.06;75.50
71942;DHT22;59997;53.300;-6.260;2023-02-28T10:06:31;8.02;76.25
71942;DHT22;59997;53.300;-6.260;2023-02-28T10:09:00;8.79;75.58
71942;DHT22;59997;53.300;-6.260;2023-02-28T10:11:27;8.20;73.99
71942;DHT22;59997;53.300;-6.260;2023-02-28T10:14:02;7.59;75.01
71942;DHT22;59997;53.300;-6.260;2023-02-28T10:16:41;7.31;75.25
71942;DHT22;59997;53.300;-6.260;2023-02-28T10:19:18;7.17;76.00
71942;DHT22;59997;53.300;-6.260;2023-02-28T10:25:15;7.37;73.82
71942;DHT22;59997;53.300;-6.260;2023-02-28T10:27:43;8.09;72.81
71942;DHT22;59997;53.300;-6.260;2023-02-28T10:30:11;8.02;71.87
71942;DHT22;59997;53.300;-6.260;2023-02-28T10:32:38;8.17;72.12
71942;DHT22;59997;53.300;-6.260;2023-02-28T10:35:20;8.90;71.66
71942;DHT22;59997;53.300;-6.260;2023-02-28T10:37:49;8.72;70.45
71942;DHT22;59997;53.300;-6.260;2023-02-28T10:43:01;10.02;68.50
71942;DHT22;59997;53.300;-6.260;2023-02-28T10:45:29;9.43;68.48
71942;DHT22;59997;53.300;-6.260;2023-02-28T10:50:50;10.15;67.21
71942;DHT22;59997;53.300;-6.260;2023-02-28T10:56:15;10.48;64.93
71942;DHT22;59997;53.300;-6.260;2023-02-28T11:01:45;9.21;68.05
71942;DHT22;59997;53.300;-6.260;2023-02-28T11:07:02;8.97;69.66
71942;DHT22;59997;53.300;-6.260;2023-02-28T11:09:40;8.76;69.10
71942;DHT22;59997;53.300;-6.260;2023-02-28T11:12:26;8.45;71.81
71942;DHT22;59997;53.300;-6.260;2023-02-28T11:14:56;8.79;71.54
71942;DHT22;59997;53.300;-6.260;2023-02-28T11:17:31;8.24;71.72
71942;DHT22;59997;53.300;-6.260;2023-02-28T11:20:05;8.16;72.76
71942;DHT22;59997;53.300;-6.260;2023-02-28T11:22:38;8.45;73.20
71942;DHT22;59997;53.300;-6.260;2023-02-28T11:25:22;8.68;71.32
71942;DHT22;59997;53.300;-6.260;2023-02-28T11:27:51;8.45;72.02
71942;DHT22;59997;53.300;-6.260;2023-02-28T11:30:31;7.87;73.44
71942;DHT22;59997;53.300;-6.260;2023-02-28T11:33:00;8.76;72.61
71942;DHT22;59997;53.300;-6.260;2023-02-28T11:35:36;8.59;71.75
71942;DHT22;59997;53.300;-6.260;2023-02-28T11:38:09;8.51;72.34
71942;DHT22;59997;53.300;-6.260;2023-02-28T11:52:21;7.71;74.27
71942;DHT22;59997;53.300;-6.260;2023-02-28T11:54:54;7.51;76.19
71942;DHT22;59997;53.300;-6.260;2023-02-28T11:57:38;7.37;77.35
71942;DHT22;59997;53.300;-6.260;2023-02-28T12:05:39;7.35;76.63
71942;DHT22;59997;53.300;-6.260;2023-02-28T12:13:54;7.93;73.25
71942;DHT22;59997;53.300;-6.260;2023-02-28T12:16:57;8.19;73.22
71942;DHT22;59997;53.300;-6.260;2023-02-28T12:19:41;8.34;72.52
71942;DHT22;59997;53.300;-6.260;2023-02-28T12:22:29;8.61;71.84
71942;DHT22;59997;53.300;-6.260;2023-02-28T12:27:43;9.07;70.75
71942;DHT22;59997;53.300;-6.260;2023-02-28T12:32:58;8.45;71.45
71942;DHT22;59997;53.300;-6.260;2023-02-28T12:35:40;8.19;71.78
71942;DHT22;59997;53.300;-6.260;2023-02-28T12:38:39;8.00;71.89
71942;DHT22;59997;53.300;-6.260;2023-02-28T12:41:29;7.92;72.01
71942;DHT22;59997;53.300;-6.260;2023-02-28T12:44:02;7.74;72.74
71942;DHT22;59997;53.300;-6.260;2023-02-28T12:46:47;7.64;73.96
71942;DHT22;59997;53.300;-6.260;2023-02-28T12:52:03;7.43;73.84
71942;DHT22;59997;53.300;-6.260;2023-02-28T12:54:56;7.44;73.54
71942;DHT22;59997;53.300;-6.260;2023-02-28T13:00:18;7.61;73.38
71942;DHT22;59997;53.300;-6.260;2023-02-28T13:03:04;7.85;73.49
71942;DHT22;59997;53.300;-6.260;2023-02-28T13:09:02;8.76;70.31
71942;DHT22;59997;53.300;-6.260;2023-02-28T13:14:39;7.92;72.05
71942;DHT22;59997;53.300;-6.260;2023-02-28T13:19:58;7.44;73.02
71942;DHT22;59997;53.300;-6.260;2023-02-28T13:22:46;7.27;74.45
71942;DHT22;59997;53.300;-6.260;2023-02-28T13:27:53;7.02;74.58
71942;DHT22;59997;53.300;-6.260;2023-02-28T13:33:37;6.96;74.06
71942;DHT22;59997;53.300;-6.260;2023-02-28T13:36:29;7.07;74.93
71942;DHT22;59997;53.300;-6.260;2023-02-28T13:39:02;7.15;73.76
71942;DHT22;59997;53.300;-6.260;2023-02-28T13:49:32;7.16;73.50
71942;DHT22;59997;53.300;-6.260;2023-02-28T13:52:20;7.06;74.19
71942;DHT22;59997;53.300;-6.260;2023-02-28T14:00:23;6.99;74.47
71942;DHT22;59997;53.300;-6.260;2023-02-28T14:06:25;6.81;75.26
71942;DHT22;59997;53.300;-6.260;2023-02-28T14:11:44;6.88;74.74
71942;DHT22;59997;53.300;-6.260;2023-02-28T14:17:07;7.09;75.00
71942;DHT22;59997;53.300;-6.260;2023-02-28T14:19:38;7.05;74.96
71942;DHT22;59997;53.300;-6.260;2023-02-28T14:27:36;6.89;74.98
71942;DHT22;59997;53.300;-6.260;2023-02-28T14:33:19;6.93;74.70
71942;DHT22;59997;53.300;-6.260;2023-02-28T14:36:10;7.12;75.82
71942;DHT22;59997;53.300;-6.260;2023-02-28T14:38:52;7.28;75.46
71942;DHT22;59997;53.300;-6.260;2023-02-28T14:41:37;7.40;74.23
71942;DHT22;59997;53.300;-6.260;2023-02-28T14:44:20;7.33;74.41
71942;DHT22;59997;53.300;-6.260;2023-02-28T14:46:53;7.19;75.06
71942;DHT22;59997;53.300;-6.260;2023-02-28T14:49:37;7.09;74.58
71942;DHT22;59997;53.300;-6.260;2023-02-28T14:52:20;6.91;75.21
71942;DHT22;59997;53.300;-6.260;2023-02-28T14:54:52;6.98;75.81
71942;DHT22;59997;53.300;-6.260;2023-02-28T14:57:27;7.00;75.25
71942;DHT22;59997;53.300;-6.260;2023-02-28T15:05:56;6.82;74.68
71942;DHT22;59997;53.300;-6.260;2023-02-28T15:08:22;6.78;75.23
71942;DHT22;59997;53.300;-6.260;2023-02-28T15:11:08;6.74;74.87
71942;DHT22;59997;53.300;-6.260;2023-02-28T15:13:53;6.84;74.84
71942;DHT22;59997;53.300;-6.260;2023-02-28T15:16:23;6.85;75.25
71942;DHT22;59997;53.300;-6.260;2023-02-28T15:18:53;6.77;74.79
71942;DHT22;59997;53.300;-6.260;2023-02-28T15:21:26;6.77;75.70
71942;DHT22;59997;53.300;-6.260;2023-02-28T15:23:58;6.82;75.82
71942;DHT22;59997;53.300;-6.260;2023-02-28T15:26:32;6.84;76.18
71942;DHT22;59997;53.300;-6.260;2023-02-28T15:29:03;6.82;75.61
71942;DHT22;59997;53.300;-6.260;2023-02-28T15:31:33;6.75;75.41
71942;DHT22;59997;53.300;-6.260;2023-02-28T15:34:06;6.64;75.63
71942;DHT22;59997;53.300;-6.260;2023-02-28T15:36:34;6.60;76.05
71942;DHT22;59997;53.300;-6.260;2023-02-28T15:39:18;6.65;76.22
71942;DHT22;59997;53.300;-6.260;2023-02-28T15:41:44;6.54;75.62
71942;DHT22;59997;53.300;-6.260;2023-02-28T15:44:29;6.60;75.85
71942;DHT22;59997;53.300;-6.260;2023-02-28T15:47:02;6.70;75.68
71942;DHT22;59997;53.300;-6.260;2023-02-28T15:49:38;6.78;76.02
71942;DHT22;59997;53.300;-6.260;2023-02-28T15:52:04;6.64;75.13
71942;DHT22;59997;53.300;-6.260;2023-02-28T15:54:34;6.60;74.76
71942;DHT22;59997;53.300;-6.260;2023-02-28T15:57:24;6.60;75.03
71942;DHT22;59997;53.300;-6.260;2023-02-28T16:00:00;6.70;75.20
71942;DHT22;59997;53.300;-6.260;2023-02-28T16:02:37;6.70;75.28
71942;DHT22;59997;53.300;-6.260;2023-02-28T16:07:41;6.64;74.26
71942;DHT22;59997;53.300;-6.260;2023-02-28T16:10:11;6.58;74.55
71942;DHT22;59997;53.300;-6.260;2023-02-28T16:12:38;6.51;73.91
71942;DHT22;59997;53.300;-6.260;2023-02-28T16:15:28;6.47;74.62
71942;DHT22;59997;53.300;-6.260;2023-02-28T16:17:56;6.55;74.83
71942;DHT22;59997;53.300;-6.260;2023-02-28T16:20:27;6.61;74.20
71942;DHT22;59997;53.300;-6.260;2023-02-28T16:22:54;6.53;73.55
71942;DHT22;59997;53.300;-6.260;2023-02-28T16:25:25;6.48;73.53
71942;DHT22;59997;53.300;-6.260;2023-02-28T16:27:53;6.41;73.78
71942;DHT22;59997;53.300;-6.260;2023-02-28T16:30:24;6.41;74.39
71942;DHT22;59997;53.300;-6.260;2023-02-28T16:32:51;6.41;73.85
71942;DHT22;59997;53.300;-6.260;2023-02-28T16:35:19;6.37;74.28
71942;DHT22;59997;53.300;-6.260;2023-02-28T16:37:44;6.43;74.22
71942;DHT22;59997;53.300;-6.260;2023-02-28T16:40:17;6.40;74.70
71942;DHT22;59997;53.300;-6.260;2023-02-28T16:42:45;6.40;74.57
71942;DHT22;59997;53.300;-6.260;2023-02-28T16:45:17;6.36;74.35
71942;DHT22;59997;53.300;-6.260;2023-02-28T16:47:45;6.39;73.97
71942;DHT22;59997;53.300;-6.260;2023-02-28T16:50:20;6.41;74.38
71942;DHT22;59997;53.300;-6.260;2023-02-28T16:52:46;6.37;74.49
71942;DHT22;59997;53.300;-6.260;2023-02-28T16:55:15;6.40;74.27
71942;DHT22;59997;53.300;-6.260;2023-02-28T16:57:40;6.34;74.29
71942;DHT22;59997;53.300;-6.260;2023-02-28T17:00:11;6.41;74.76
71942;DHT22;59997;53.300;-6.260;2023-02-28T17:02:40;6.40;73.97
71942;DHT22;59997;53.300;-6.260;2023-02-28T17:05:05;6.39;73.70
71942;DHT22;59997;53.300;-6.260;2023-02-28T17:07:31;6.29;74.49
71942;DHT22;59997;53.300;-6.260;2023-02-28T17:09:58;6.32;73.95
71942;DHT22;59997;53.300;-6.260;2023-02-28T17:12:27;6.37;73.84
71942;DHT22;59997;53.300;-6.260;2023-02-28T17:14:53;6.33;74.81
71942;DHT22;59997;53.300;-6.260;2023-02-28T17:17:21;6.36;73.96
71942;DHT22;59997;53.300;-6.260;2023-02-28T17:19:47;6.30;73.64
71942;DHT22;59997;53.300;-6.260;2023-02-28T17:22:15;6.39;73.63
71942;DHT22;59997;53.300;-6.260;2023-02-28T17:24:40;6.29;74.49
71942;DHT22;59997;53.300;-6.260;2023-02-28T17:27:06;6.25;74.64
71942;DHT22;59997;53.300;-6.260;2023-02-28T17:29:34;6.23;73.95
71942;DHT22;59997;53.300;-6.260;2023-02-28T17:32:00;6.30;73.88
71942;DHT22;59997;53.300;-6.260;2023-02-28T17:34:25;6.29;74.31
71942;DHT22;59997;53.300;-6.260;2023-02-28T17:36:51;6.26;74.51
71942;DHT22;59997;53.300;-6.260;2023-02-28T17:39:18;6.29;74.09
71942;DHT22;59997;53.300;-6.260;2023-02-28T17:41:53;6.26;74.47
71942;DHT22;59997;53.300;-6.260;2023-02-28T17:44:19;6.22;74.46
71942;DHT22;59997;53.300;-6.260;2023-02-28T17:46:45;6.22;74.53
71942;DHT22;59997;53.300;-6.260;2023-02-28T17:49:14;6.15;74.90
71942;DHT22;59997;53.300;-6.260;2023-02-28T17:51:40;6.20;74.84
71942;DHT22;59997;53.300;-6.260;2023-02-28T17:54:06;6.28;74.06
71942;DHT22;59997;53.300;-6.260;2023-02-28T17:56:33;6.18;74.56
71942;DHT22;59997;53.300;-6.260;2023-02-28T17:58:59;6.23;75.14
71942;DHT22;59997;53.300;-6.260;2023-02-28T18:01:25;6.22;74.81
71942;DHT22;59997;53.300;-6.260;2023-02-28T18:03:52;6.18;74.73
71942;DHT22;59997;53.300;-6.260;2023-02-28T18:06:43;6.26;75.00
71942;DHT22;59997;53.300;-6.260;2023-02-28T18:09:14;6.23;74.49
71942;DHT22;59997;53.300;-6.260;2023-02-28T18:11:40;6.23;74.85
71942;DHT22;59997;53.300;-6.260;2023-02-28T18:14:13;6.20;74.84
71942;DHT22;59997;53.300;-6.260;2023-02-28T18:16:39;6.23;75.09